Time;durP1;ratioP1;P1;durP2;ratioP2;P2;SDS_P1;SDS_P2;PMS_P1;PMS_P2;Temp;Humidity;BMP_temperature;BMP_pressure;BME280_temperature;BME280_humidity;BME280_pressure;Samples;Min_cycle;Max_cycle;Signal;HPM_P1;HPM_P2
2022/12/24 00:02:18;;;;;;;0.60;0.60;;;10.70;99.90;;;;;;4949381;28;20306;-82
2022/12/24 00:04:44;;;;;;;0.60;0.60;;;10.70;99.90;;;;;;4945111;28;20045;-82
2022/12/24 00:07:10;;;;;;;0.60;0.60;;;10.70;99.90;;;;;;4944655;28;20415;-81
2022/12/24 00:09:36;;;;;;;0.50;0.50;;;10.70;99.90;;;;;;4919762;28;20045;-82
2022/12/24 00:12:01;;;;;;;0.60;0.60;;;10.70;99.90;;;;;;4940006;28;20056;-82
2022/12/24 00:14:28;;;;;;;0.60;0.60;;;10.80;99.90;;;;;;4937082;28;20049;-85
2022/12/24 00:16:53;;;;;;;0.50;0.50;;;10.80;99.90;;;;;;4919357;28;20412;-83
2022/12/24 00:19:19;;;;;;;0.50;0.50;;;10.80;99.90;;;;;;4937204;28;20210;-80
2022/12/24 00:21:45;;;;;;;0.50;0.50;;;10.80;99.90;;;;;;4930680;28;20445;-83
2022/12/24 00:24:11;;;;;;;0.50;0.50;;;10.90;99.90;;;;;;4932290;28;20072;-86
2022/12/24 00:26:38;;;;;;;0.50;0.50;;;10.80;99.90;;;;;;4936764;28;20045;-82
2022/12/24 00:29:04;;;;;;;0.50;0.50;;;10.80;99.90;;;;;;4918273;28;20475;-86
2022/12/24 00:31:31;;;;;;;0.50;0.50;;;10.80;99.90;;;;;;4909622;28;20132;-81
2022/12/24 00:33:57;;;;;;;0.50;0.50;;;10.80;99.90;;;;;;4928978;28;20056;-83
2022/12/24 00:36:23;;;;;;;0.60;0.60;;;10.80;99.90;;;;;;4903407;28;20049;-83
2022/12/24 00:38:49;;;;;;;0.55;0.55;;;10.80;99.90;;;;;;4931992;28;20132;-84
2022/12/24 00:41:27;;;;;;;0.50;0.50;;;10.70;99.90;;;;;;4927569;28;20047;-81
2022/12/24 00:44:03;;;;;;;0.60;0.60;;;10.80;99.90;;;;;;4923514;28;20060;-84
2022/12/24 00:46:31;;;;;;;0.60;0.60;;;10.80;99.90;;;;;;4927474;28;20045;-82
2022/12/24 00:48:57;;;;;;;0.60;0.60;;;10.70;99.90;;;;;;4944055;28;20124;-84
2022/12/24 00:51:23;;;;;;;0.50;0.50;;;10.70;99.90;;;;;;4927819;28;20071;-83
2022/12/24 00:53:50;;;;;;;0.60;0.60;;;10.70;99.90;;;;;;4928319;28;20119;-83
2022/12/24 00:56:17;;;;;;;0.60;0.60;;;10.80;99.90;;;;;;4946004;28;20453;-83
2022/12/24 00:58:43;;;;;;;0.50;0.50;;;10.80;99.90;;;;;;4944123;28;20044;-84
2022/12/24 01:01:09;;;;;;;0.50;0.50;;;10.70;99.90;;;;;;4942870;28;20102;-82
2022/12/24 01:03:35;;;;;;;0.50;0.50;;;10.70;99.90;;;;;;4941852;28;20048;-83
2022/12/24 01:06:07;;;;;;;0.60;0.60;;;10.70;99.90;;;;;;4927647;28;20131;-84
2022/12/24 01:08:33;;;;;;;0.60;0.60;;;10.70;99.90;;;;;;4934620;28;20108;-82
2022/12/24 01:11:00;;;;;;;0.50;0.50;;;10.70;99.90;;;;;;4948089;28;20527;-84
2022/12/24 01:13:26;;;;;;;0.60;0.60;;;10.60;99.90;;;;;;4938331;28;20142;-82
2022/12/24 01:15:52;;;;;;;0.60;0.60;;;10.70;99.90;;;;;;4937442;28;20049;-82
2022/12/24 01:18:18;;;;;;;0.50;0.50;;;10.60;99.90;;;;;;4941518;28;20161;-83
2022/12/24 01:20:53;;;;;;;0.50;0.50;;;10.70;99.90;;;;;;4932728;28;20125;-83
2022/12/24 01:23:19;;;;;;;0.50;0.50;;;10.80;99.90;;;;;;4942518;28;20049;-82
2022/12/24 01:25:45;;;;;;;0.50;0.50;;;10.70;99.90;;;;;;4936445;28;20049;-82
2022/12/24 01:28:11;;;;;;;0.60;0.60;;;10.70;99.90;;;;;;4924986;28;20241;-83
2022/12/24 01:30:39;;;;;;;0.50;0.50;;;10.70;99.90;;;;;;4949576;28;20479;-83
2022/12/24 01:33:05;;;;;;;0.50;0.50;;;10.70;99.90;;;;;;4946416;28;20614;-82
2022/12/24 01:35:31;;;;;;;0.60;0.60;;;10.60;99.90;;;;;;4942354;28;20490;-83
2022/12/24 01:37:57;;;;;;;0.60;0.60;;;10.70;99.90;;;;;;4928015;28;20049;-82
2022/12/24 01:43:23;;;;;;;0.60;0.60;;;10.70;99.90;;;;;;4943030;28;20049;-83
2022/12/24 01:45:54;;;;;;;0.50;0.50;;;10.70;99.90;;;;;;4941406;28;20412;-82
2022/12/24 01:48:39;;;;;;;0.50;0.50;;;10.60;99.90;;;;;;4948292;28;20216;-83
2022/12/24 01:51:14;;;;;;;0.60;0.60;;;10.70;99.90;;;;;;4934977;28;20298;-85
2022/12/24 01:53:44;;;;;;;0.50;0.50;;;10.70;99.90;;;;;;4936366;28;20903;-83
2022/12/24 01:56:11;;;;;;;0.50;0.50;;;10.60;99.90;;;;;;4939519;28;20513;-83
2022/12/24 01:58:40;;;;;;;0.50;0.50;;;10.60;99.90;;;;;;4948331;28;20245;-83
2022/12/24 02:01:07;;;;;;;0.50;0.50;;;10.60;99.90;;;;;;4918720;28;20072;-84
2022/12/24 02:03:33;;;;;;;0.50;0.50;;;10.60;99.90;;;;;;4935705;28;20060;-82
2022/12/24 02:05:59;;;;;;;0.50;0.50;;;10.60;99.90;;;;;;4923910;28;20624;-83
2022/12/24 02:08:38;;;;;;;0.60;0.60;;;10.60;99.90;;;;;;4946177;28;20048;-83
2022/12/24 02:11:21;;;;;;;0.60;0.60;;;10.50;99.90;;;;;;4943026;28;20041;-83
2022/12/24 02:13:52;;;;;;;0.60;0.60;;;10.60;99.90;;;;;;4946939;28;20416;-83
2022/12/24 02:16:33;;;;;;;0.50;0.50;;;10.60;99.90;;;;;;4956205;28;20465;-84
2022/12/24 02:19:20;;;;;;;0.50;0.50;;;10.60;99.90;;;;;;4948159;28;20538;-84
2022/12/24 02:22:00;;;;;;;0.50;0.50;;;10.50;99.90;;;;;;4949164;28;20477;-85
2022/12/24 02:25:01;;;;;;;0.50;0.50;;;10.60;99.90;;;;;;4933447;28;20136;-85
2022/12/24 02:27:44;;;;;;;0.50;0.50;;;10.60;99.90;;;;;;4944801;28;21271;-83
2022/12/24 02:30:17;;;;;;;0.50;0.50;;;10.60;99.90;;;;;;4946772;28;20072;-84
2022/12/24 02:33:32;;;;;;;0.50;0.50;;;10.60;99.90;;;;;;4939260;28;20103;-84
2022/12/24 02:36:07;;;;;;;0.50;0.50;;;10.60;99.90;;;;;;4921238;28;20154;-82
2022/12/24 02:39:00;;;;;;;0.50;0.50;;;10.60;99.90;;;;;;4969846;28;20115;-82
2022/12/24 02:44:23;;;;;;;0.50;0.50;;;10.60;99.90;;;;;;4960684;28;20311;-82
2022/12/24 02:46:51;;;;;;;0.57;0.57;;;10.60;99.90;;;;;;4955232;28;20901;-83
2022/12/24 02:49:17;;;;;;;0.50;0.50;;;10.60;99.90;;;;;;4945235;28;20220;-83
2022/12/24 02:51:43;;;;;;;0.50;0.50;;;10.60;99.90;;;;;;4946772;28;20218;-82
2022/12/24 02:54:11;;;;;;;0.50;0.50;;;10.60;99.90;;;;;;4928736;28;20048;-84
2022/12/24 02:56:52;;;;;;;0.60;0.60;;;10.60;99.90;;;;;;4948429;28;20759;-83
2022/12/24 02:59:24;;;;;;;0.50;0.50;;;10.60;99.90;;;;;;4955268;28;20587;-86
2022/12/24 03:02:18;;;;;;;0.50;0.50;;;10.60;99.90;;;;;;4944702;28;20676;-83
2022/12/24 03:04:53;;;;;;;0.50;0.50;;;10.60;99.90;;;;;;4956363;28;20841;-85
2022/12/24 03:07:51;;;;;;;0.50;0.50;;;10.70;99.90;;;;;;4937828;28;20506;-81
2022/12/24 03:10:41;;;;;;;0.50;0.50;;;10.70;99.90;;;;;;4944300;28;21110;-84
2022/12/24 03:13:13;;;;;;;0.57;0.57;;;10.70;99.90;;;;;;4936812;28;21057;-81
2022/12/24 03:15:41;;;;;;;0.50;0.50;;;10.70;99.90;;;;;;4926633;28;20072;-83
2022/12/24 03:18:10;;;;;;;0.60;0.60;;;10.70;99.90;;;;;;4949370;28;21141;-82
2022/12/24 03:20:43;;;;;;;0.60;0.60;;;10.70;99.90;;;;;;4931829;28;20057;-81
2022/12/24 03:23:10;;;;;;;0.50;0.50;;;10.70;99.90;;;;;;4956811;28;20064;-81
2022/12/24 03:25:40;;;;;;;0.50;0.50;;;10.70;99.90;;;;;;4943502;28;20057;-81
2022/12/24 03:28:08;;;;;;;0.60;0.60;;;10.70;99.90;;;;;;4945152;28;20056;-81
2022/12/24 03:30:34;;;;;;;0.50;0.50;;;10.60;99.90;;;;;;4939500;28;20140;-81
2022/12/24 03:33:00;;;;;;;0.50;0.50;;;10.70;99.90;;;;;;4935355;28;20153;-81
2022/12/24 03:35:26;;;;;;;0.50;0.50;;;10.70;99.90;;;;;;4926700;28;20132;-81
2022/12/24 03:37:52;;;;;;;0.60;0.60;;;10.70;99.90;;;;;;4941513;28;20674;-81
2022/12/24 03:40:21;;;;;;;0.55;0.55;;;10.60;99.90;;;;;;4954417;28;20048;-82
2022/12/24 03:42:47;;;;;;;0.60;0.60;;;10.70;99.90;;;;;;4948096;28;20245;-82
2022/12/24 03:45:13;;;;;;;0.60;0.60;;;10.70;99.90;;;;;;4948804;28;20650;-83
2022/12/24 03:47:38;;;;;;;0.50;0.50;;;10.70;99.90;;;;;;4937792;28;20099;-81
2022/12/24 03:50:06;;;;;;;0.60;0.60;;;10.70;99.90;;;;;;4928093;28;20265;-82
2022/12/24 03:52:32;;;;;;;0.57;0.57;;;10.60;99.90;;;;;;4939732;28;20053;-81
2022/12/24 03:54:58;;;;;;;0.50;0.50;;;10.60;99.90;;;;;;4928473;28;20084;-81
2022/12/24 03:57:24;;;;;;;0.60;0.60;;;10.70;99.90;;;;;;4940052;28;20052;-82
2022/12/24 03:59:50;;;;;;;0.50;0.50;;;10.70;99.90;;;;;;4947422;28;20189;-81
2022/12/24 04:02:16;;;;;;;0.50;0.50;;;10.70;99.90;;;;;;4943807;28;20319;-82
2022/12/24 04:04:42;;;;;;;0.50;0.50;;;10.70;99.90;;;;;;4944473;28;20616;-82
2022/12/24 04:07:08;;;;;;;0.60;0.60;;;10.60;99.90;;;;;;4938059;28;20050;-81
2022/12/24 04:09:34;;;;;;;0.60;0.60;;;10.60;99.90;;;;;;4927253;28;20036;-82
2022/12/24 04:12:00;;;;;;;0.60;0.60;;;10.60;99.90;;;;;;4914299;28;20053;-81
2022/12/24 04:14:27;;;;;;;0.50;0.50;;;10.60;99.90;;;;;;4942738;28;20442;-82
2022/12/24 04:16:53;;;;;;;0.50;0.50;;;10.60;99.90;;;;;;4927253;28;20266;-81
2022/12/24 04:19:19;;;;;;;0.60;0.60;;;10.60;99.90;;;;;;4953261;28;20379;-82
2022/12/24 04:21:45;;;;;;;0.50;0.50;;;10.60;99.90;;;;;;4922497;28;20391;-81
2022/12/24 04:24:11;;;;;;;0.50;0.50;;;10.60;99.90;;;;;;4937461;28;20115;-82
2022/12/24 04:26:37;;;;;;;0.60;0.60;;;10.60;99.90;;;;;;4942780;28;20166;-82
2022/12/24 04:29:04;;;;;;;0.55;0.55;;;10.60;99.90;;;;;;4939984;28;20123;-82
2022/12/24 04:31:30;;;;;;;0.50;0.50;;;10.50;99.90;;;;;;4929045;28;20267;-81
2022/12/24 04:33:56;;;;;;;0.50;0.50;;;10.60;99.90;;;;;;4941037;28;20445;-82
2022/12/24 04:36:22;;;;;;;0.50;0.50;;;10.60;99.90;;;;;;4917253;28;20622;-82
2022/12/24 04:38:48;;;;;;;0.57;0.57;;;10.50;99.90;;;;;;4943682;28;20049;-81
2022/12/24 04:41:20;;;;;;;0.50;0.50;;;10.50;99.90;;;;;;4937103;28;20048;-81
2022/12/24 04:43:47;;;;;;;0.60;0.60;;;10.50;99.90;;;;;;4943731;28;20340;-81
2022/12/24 04:46:18;;;;;;;0.60;0.60;;;10.40;99.90;;;;;;4930354;28;20552;-83
2022/12/24 04:48:46;;;;;;;0.60;0.60;;;10.40;99.90;;;;;;4940034;28;20046;-81
2022/12/24 04:51:13;;;;;;;0.52;0.52;;;10.50;99.90;;;;;;4938908;28;20045;-81
2022/12/24 04:53:40;;;;;;;0.60;0.60;;;10.50;99.90;;;;;;4937326;28;20252;-82
2022/12/24 04:56:16;;;;;;;0.50;0.50;;;10.40;99.90;;;;;;4943658;28;20045;-82
2022/12/24 04:58:43;;;;;;;0.57;0.57;;;10.50;99.90;;;;;;4947493;28;20102;-80
2022/12/24 05:01:13;;;;;;;0.60;0.60;;;10.50;99.90;;;;;;4916246;28;20087;-82
2022/12/24 05:03:39;;;;;;;0.60;0.60;;;10.40;99.90;;;;;;4941695;28;20057;-82
2022/12/24 05:06:07;;;;;;;0.60;0.60;;;10.50;99.90;;;;;;4947292;28;20899;-81
2022/12/24 05:08:33;;;;;;;0.60;0.60;;;10.50;99.90;;;;;;4932199;28;20610;-81
2022/12/24 05:11:01;;;;;;;0.60;0.60;;;10.40;99.90;;;;;;4938682;28;20111;-81
2022/12/24 05:13:27;;;;;;;0.60;0.60;;;10.30;99.90;;;;;;4938511;28;20080;-81
2022/12/24 05:15:54;;;;;;;0.50;0.50;;;10.40;99.90;;;;;;4944406;28;20577;-82
2022/12/24 05:18:20;;;;;;;0.50;0.50;;;10.40;99.90;;;;;;4933772;28;20465;-83
2022/12/24 05:20:47;;;;;;;0.50;0.50;;;10.50;99.90;;;;;;4943249;28;20071;-81
2022/12/24 05:26:21;;;;;;;0.50;0.50;;;10.50;99.90;;;;;;4948310;28;20056;-82
2022/12/24 05:28:53;;;;;;;0.60;0.60;;;10.40;99.90;;;;;;4925510;28;20854;-82
2022/12/24 05:31:21;;;;;;;0.50;0.50;;;10.30;99.90;;;;;;4947303;28;20071;-81
2022/12/24 05:33:48;;;;;;;0.50;0.50;;;10.40;99.90;;;;;;4937450;28;20064;-82
2022/12/24 05:36:14;;;;;;;0.50;0.50;;;10.40;99.90;;;;;;4947875;28;20614;-81
2022/12/24 05:38:40;;;;;;;0.50;0.50;;;10.40;99.90;;;;;;4940908;28;20056;-82
2022/12/24 05:41:08;;;;;;;0.60;0.60;;;10.40;99.90;;;;;;4943838;28;20768;-81
2022/12/24 05:43:36;;;;;;;0.60;0.60;;;10.40;99.90;;;;;;4940847;28;20485;-82
2022/12/24 05:46:06;;;;;;;0.50;0.50;;;10.30;99.90;;;;;;4939162;28;20041;-82
2022/12/24 05:48:32;;;;;;;0.60;0.60;;;10.30;99.90;;;;;;4942194;28;20056;-81
2022/12/24 05:50:58;;;;;;;0.60;0.60;;;10.30;99.90;;;;;;4943784;28;20148;-82
2022/12/24 05:53:24;;;;;;;0.50;0.50;;;10.30;99.90;;;;;;4917703;28;20391;-82
2022/12/24 05:55:51;;;;;;;0.50;0.50;;;10.30;99.90;;;;;;4935522;28;20425;-82
2022/12/24 05:58:16;;;;;;;0.60;0.60;;;10.30;99.90;;;;;;4943823;28;20664;-81
2022/12/24 06:00:42;;;;;;;0.50;0.50;;;10.30;99.90;;;;;;4942666;28;20041;-82
2022/12/24 06:03:08;;;;;;;0.50;0.50;;;10.30;99.90;;;;;;4945871;28;20598;-81
2022/12/24 06:05:34;;;;;;;0.60;0.60;;;10.30;99.90;;;;;;4942844;28;20068;-81
2022/12/24 06:08:00;;;;;;;0.60;0.60;;;10.30;99.90;;;;;;4943761;28;20557;-81
2022/12/24 06:10:26;;;;;;;0.60;0.60;;;10.30;99.90;;;;;;4937663;28;20045;-81
2022/12/24 06:12:52;;;;;;;0.50;0.50;;;10.30;99.90;;;;;;4942489;28;20761;-81
2022/12/24 06:15:18;;;;;;;0.60;0.60;;;10.20;99.90;;;;;;4948492;28;20072;-82
2022/12/24 06:17:44;;;;;;;0.50;0.50;;;10.20;99.90;;;;;;4936390;28;20045;-82
2022/12/24 06:20:10;;;;;;;0.60;0.60;;;10.10;99.90;;;;;;4945357;28;20455;-83
2022/12/24 06:22:35;;;;;;;0.60;0.60;;;10.10;99.90;;;;;;4927669;28;20068;-82
2022/12/24 06:25:01;;;;;;;0.60;0.60;;;10.10;99.90;;;;;;4930693;28;20745;-82
2022/12/24 06:27:27;;;;;;;0.60;0.60;;;10.10;99.90;;;;;;4937554;28;20445;-81
2022/12/24 06:29:53;;;;;;;0.60;0.60;;;10.10;99.90;;;;;;4946569;28;20579;-82
2022/12/24 06:32:20;;;;;;;0.60;0.60;;;10.00;99.90;;;;;;4938041;28;20170;-82
2022/12/24 06:34:46;;;;;;;0.50;0.50;;;10.00;99.90;;;;;;4926564;28;20298;-82
2022/12/24 06:37:17;;;;;;;0.60;0.60;;;9.90;99.90;;;;;;4924399;28;20049;-81
2022/12/24 06:39:45;;;;;;;0.60;0.60;;;9.90;99.90;;;;;;4950275;28;20432;-82
2022/12/24 06:42:12;;;;;;;0.60;0.60;;;9.80;99.90;;;;;;4937024;28;20703;-83
2022/12/24 06:44:38;;;;;;;0.60;0.60;;;9.70;99.90;;;;;;4945737;28;20149;-81
2022/12/24 06:47:04;;;;;;;0.60;0.60;;;9.70;99.90;;;;;;4938572;28;20042;-81
2022/12/24 06:49:30;;;;;;;0.60;0.60;;;9.70;99.90;;;;;;4936605;28;20052;-82
2022/12/24 06:51:56;;;;;;;0.60;0.60;;;9.70;99.90;;;;;;4938301;28;20042;-82
2022/12/24 06:54:22;;;;;;;0.60;0.60;;;9.80;99.90;;;;;;4939776;28;20495;-81
2022/12/24 06:56:47;;;;;;;0.60;0.60;;;9.70;99.90;;;;;;4941558;28;20514;-81
2022/12/24 06:59:14;;;;;;;0.60;0.60;;;9.80;99.90;;;;;;4944575;28;20529;-81
2022/12/24 07:01:40;;;;;;;0.60;0.60;;;9.80;99.90;;;;;;4948494;28;21060;-82
2022/12/24 07:04:05;;;;;;;0.60;0.60;;;9.70;99.90;;;;;;4943731;28;20045;-81
2022/12/24 07:06:31;;;;;;;0.60;0.60;;;9.80;99.90;;;;;;4920413;28;20076;-81
2022/12/24 07:08:57;;;;;;;0.60;0.60;;;9.80;99.90;;;;;;4939658;28;20134;-81
2022/12/24 07:11:24;;;;;;;0.60;0.60;;;9.80;99.90;;;;;;4924663;28;20558;-81
2022/12/24 07:13:50;;;;;;;0.60;0.60;;;9.80;99.90;;;;;;4945285;28;20218;-81
2022/12/24 07:16:17;;;;;;;0.60;0.60;;;9.80;99.90;;;;;;4942526;28;20049;-81
2022/12/24 07:18:43;;;;;;;0.60;0.60;;;9.80;99.90;;;;;;4948836;28;20062;-82
2022/12/24 07:21:09;;;;;;;0.60;0.60;;;9.70;99.90;;;;;;4946202;28;20046;-81
2022/12/24 07:23:36;;;;;;;0.60;0.60;;;9.70;99.90;;;;;;4926576;28;20112;-81
2022/12/24 07:26:04;;;;;;;0.60;0.60;;;9.80;99.90;;;;;;4922276;28;20164;-81
2022/12/24 07:28:30;;;;;;;0.60;0.60;;;9.80;99.90;;;;;;4937142;28;20135;-81
2022/12/24 07:30:57;;;;;;;0.60;0.60;;;9.80;99.90;;;;;;4943006;28;20045;-80
2022/12/24 07:33:24;;;;;;;0.60;0.60;;;9.80;99.90;;;;;;4945019;28;20589;-81
2022/12/24 07:36:01;;;;;;;0.60;0.60;;;9.80;99.90;;;;;;4943914;28;20079;-82
2022/12/24 07:38:27;;;;;;;0.60;0.60;;;9.80;99.90;;;;;;4946443;28;20060;-81
2022/12/24 07:40:53;;;;;;;0.60;0.60;;;9.80;99.90;;;;;;4942585;28;20077;-81
2022/12/24 07:43:19;;;;;;;0.60;0.60;;;9.80;99.90;;;;;;4920676;28;20152;-82
2022/12/24 07:45:45;;;;;;;0.60;0.60;;;9.90;99.90;;;;;;4944823;28;20051;-82
2022/12/24 07:48:11;;;;;;;0.60;0.60;;;9.90;99.90;;;;;;4943988;28;20174;-82
2022/12/24 07:50:37;;;;;;;0.60;0.60;;;9.90;99.90;;;;;;4945419;28;20076;-79
2022/12/24 07:53:02;;;;;;;0.60;0.60;;;9.90;99.90;;;;;;4943709;28;20546;-82
2022/12/24 07:55:28;;;;;;;0.60;0.60;;;9.90;99.90;;;;;;4943859;28;20123;-81
2022/12/24 07:57:54;;;;;;;0.60;0.60;;;10.00;99.90;;;;;;4929454;28;20425;-81
2022/12/24 08:00:20;;;;;;;0.60;0.60;;;10.00;99.90;;;;;;4942336;28;20436;-82
2022/12/24 08:02:46;;;;;;;0.60;0.60;;;9.90;99.90;;;;;;4945921;28;20503;-82
2022/12/24 08:05:12;;;;;;;0.60;0.60;;;9.90;99.90;;;;;;4924017;28;20045;-82
2022/12/24 08:07:38;;;;;;;0.60;0.60;;;10.00;99.90;;;;;;4944605;28;20045;-82
2022/12/24 08:10:06;;;;;;;0.60;0.60;;;10.00;99.90;;;;;;4963564;28;20403;-80
2022/12/24 08:12:31;;;;;;;0.60;0.60;;;10.10;99.90;;;;;;4939192;28;20061;-81
2022/12/24 08:14:57;;;;;;;0.60;0.60;;;10.10;99.90;;;;;;4949407;28;20503;-82
2022/12/24 08:17:23;;;;;;;0.60;0.60;;;10.10;99.90;;;;;;4941580;28;20041;-82
2022/12/24 08:19:49;;;;;;;0.60;0.60;;;10.20;99.90;;;;;;4942569;28;20053;-81
2022/12/24 08:22:15;;;;;;;0.60;0.60;;;10.10;99.90;;;;;;4932936;28;20859;-81
2022/12/24 08:24:41;;;;;;;0.60;0.60;;;10.10;99.90;;;;;;4946976;28;20045;-81
2022/12/24 08:27:07;;;;;;;0.60;0.60;;;10.20;99.90;;;;;;4940578;28;20049;-81
2022/12/24 08:29:33;;;;;;;0.60;0.60;;;10.20;99.90;;;;;;4939892;28;20519;-82
2022/12/24 08:31:59;;;;;;;0.60;0.60;;;10.20;99.90;;;;;;4942855;28;20138;-82
2022/12/24 08:34:25;;;;;;;0.60;0.60;;;10.20;99.90;;;;;;4927316;28;20453;-81
2022/12/24 08:36:51;;;;;;;0.60;0.60;;;10.30;99.90;;;;;;4943107;28;20325;-81
2022/12/24 08:39:18;;;;;;;0.60;0.60;;;10.30;99.90;;;;;;4939687;28;20083;-81
2022/12/24 08:41:44;;;;;;;0.60;0.60;;;10.30;99.90;;;;;;4944279;28;20045;-81
2022/12/24 08:44:12;;;;;;;0.60;0.60;;;10.20;99.90;;;;;;4944818;28;21114;-81
2022/12/24 08:46:38;;;;;;;0.60;0.60;;;10.40;99.90;;;;;;4942208;28;20406;-81
2022/12/24 08:49:04;;;;;;;0.60;0.60;;;10.40;99.90;;;;;;4941855;28;20052;-82
2022/12/24 08:51:30;;;;;;;0.60;0.60;;;10.30;99.90;;;;;;4931638;28;20979;-81
2022/12/24 08:53:56;;;;;;;0.60;0.60;;;10.30;99.90;;;;;;4916726;28;20458;-81
2022/12/24 08:56:22;;;;;;;0.60;0.60;;;10.40;99.90;;;;;;4944724;28;20190;-82
2022/12/24 08:58:48;;;;;;;0.60;0.60;;;10.40;99.90;;;;;;4952671;28;20115;-81
2022/12/24 09:01:17;;;;;;;0.60;0.60;;;10.50;99.90;;;;;;4947889;28;20103;-81
2022/12/24 09:03:43;;;;;;;0.60;0.60;;;10.50;99.90;;;;;;4948184;28;20053;-82
2022/12/24 09:06:10;;;;;;;0.60;0.60;;;10.60;99.90;;;;;;4925100;28;20563;-81
2022/12/24 09:08:36;;;;;;;0.60;0.60;;;10.60;99.90;;;;;;4941619;28;20326;-82
2022/12/24 09:11:07;;;;;;;0.50;0.50;;;10.60;99.90;;;;;;4909272;28;20411;-81
2022/12/24 09:13:33;;;;;;;0.60;0.60;;;10.60;99.90;;;;;;4960553;28;20089;-82
2022/12/24 09:15:59;;;;;;;0.50;0.50;;;10.70;99.90;;;;;;4944004;28;20919;-82
2022/12/24 09:18:25;;;;;;;0.60;0.60;;;10.80;99.90;;;;;;4942677;28;20561;-82
2022/12/24 09:20:57;;;;;;;0.60;0.60;;;10.80;99.90;;;;;;4944726;28;20488;-82
2022/12/24 09:23:23;;;;;;;0.60;0.60;;;10.90;99.90;;;;;;4952116;28;20510;-82
2022/12/24 09:25:48;;;;;;;0.60;0.60;;;10.90;99.90;;;;;;4934376;28;20127;-82
2022/12/24 09:28:17;;;;;;;0.60;0.60;;;11.00;99.90;;;;;;4940804;28;20567;-82
2022/12/24 09:30:43;;;;;;;0.60;0.60;;;10.90;99.90;;;;;;4943490;28;20092;-82
2022/12/24 09:33:09;;;;;;;0.60;0.60;;;10.90;99.90;;;;;;4950946;28;20420;-83
2022/12/24 09:35:37;;;;;;;0.60;0.60;;;11.00;99.90;;;;;;4946662;28;20049;-81
2022/12/24 09:38:03;;;;;;;0.50;0.50;;;11.10;99.90;;;;;;4940340;28;20131;-83
2022/12/24 09:40:38;;;;;;;0.50;0.50;;;11.10;99.90;;;;;;4940292;28;20446;-82
2022/12/24 09:43:14;;;;;;;0.60;0.60;;;11.20;99.90;;;;;;4949513;28;20049;-83
2022/12/24 09:46:03;;;;;;;0.50;0.50;;;11.20;99.90;;;;;;4953045;28;20495;-82
2022/12/24 09:48:33;;;;;;;0.60;0.60;;;11.20;99.90;;;;;;4955834;28;20114;-82
2022/12/24 09:51:28;;;;;;;0.60;0.60;;;11.10;99.90;;;;;;4951681;28;20416;-81
2022/12/24 09:54:07;;;;;;;0.60;0.60;;;11.10;99.90;;;;;;4952200;28;20973;-83
2022/12/24 09:56:39;;;;;;;0.50;0.50;;;11.10;99.90;;;;;;4933293;28;20056;-83
2022/12/24 09:59:19;;;;;;;0.60;0.60;;;11.10;99.90;;;;;;4953585;28;20048;-82
2022/12/24 10:01:46;;;;;;;0.60;0.60;;;11.10;99.90;;;;;;4949461;28;20049;-83
2022/12/24 10:04:18;;;;;;;0.60;0.60;;;11.00;99.90;;;;;;4943273;28;20111;-82
2022/12/24 10:06:55;;;;;;;0.60;0.60;;;11.00;99.90;;;;;;4949149;28;20060;-83
2022/12/24 10:09:46;;;;;;;0.60;0.60;;;11.00;99.90;;;;;;4931365;28;20048;-83
2022/12/24 10:12:34;;;;;;;0.60;0.60;;;11.00;99.90;;;;;;4947313;28;20049;-83
2022/12/24 10:15:19;;;;;;;0.60;0.60;;;10.90;99.90;;;;;;4954783;28;20041;-83
2022/12/24 10:18:07;;;;;;;0.60;0.60;;;10.80;99.90;;;;;;4966292;28;20132;-83
2022/12/24 10:20:52;;;;;;;0.60;0.60;;;10.80;99.90;;;;;;4948706;28;20128;-83
2022/12/24 10:23:54;;;;;;;0.60;0.60;;;10.80;99.90;;;;;;4946363;28;20049;-83
2022/12/24 10:26:29;;;;;;;0.60;0.60;;;10.70;99.90;;;;;;4951320;28;20479;-83
2022/12/24 10:29:24;;;;;;;0.60;0.60;;;10.70;99.90;;;;;;4953624;28;20053;-84
2022/12/24 10:31:57;;;;;;;0.60;0.60;;;10.70;99.90;;;;;;4931272;28;20792;-83
2022/12/24 10:34:27;;;;;;;0.60;0.60;;;10.60;99.90;;;;;;4953950;28;20179;-83
2022/12/24 10:36:53;;;;;;;0.60;0.60;;;10.60;99.90;;;;;;4955960;28;20057;-82
2022/12/24 10:39:24;;;;;;;0.60;0.60;;;10.60;99.90;;;;;;4946376;28;20045;-84
2022/12/24 10:41:56;;;;;;;0.60;0.60;;;10.70;99.90;;;;;;4947805;28;20056;-83
2022/12/24 10:44:29;;;;;;;0.60;0.60;;;10.80;99.90;;;;;;4952345;28;20060;-84
2022/12/24 10:46:56;;;;;;;0.57;0.57;;;10.80;99.90;;;;;;4944577;28;20045;-84
2022/12/24 10:49:42;;;;;;;0.60;0.60;;;10.90;99.90;;;;;;4953382;28;20057;-83
2022/12/24 10:52:15;;;;;;;0.60;0.60;;;11.00;99.90;;;;;;4955207;28;20053;-83
2022/12/24 10:55:06;;;;;;;0.60;0.60;;;11.00;99.90;;;;;;4942779;28;20276;-83
2022/12/24 10:57:32;;;;;;;0.60;0.60;;;10.90;99.90;;;;;;4956597;28;20579;-86
2022/12/24 10:59:59;;;;;;;0.60;0.60;;;11.00;99.90;;;;;;4934619;28;20057;-84
2022/12/24 11:02:32;;;;;;;0.60;0.60;;;11.00;99.90;;;;;;4947466;28;20415;-83
2022/12/24 11:04:59;;;;;;;0.50;0.50;;;11.00;99.90;;;;;;4946717;28;20041;-82
2022/12/24 11:07:28;;;;;;;0.60;0.60;;;11.00;99.90;;;;;;4947407;28;20490;-82
2022/12/24 11:09:59;;;;;;;0.55;0.55;;;10.90;99.90;;;;;;4943274;28;20107;-82
2022/12/24 11:12:29;;;;;;;0.50;0.50;;;11.10;99.90;;;;;;4962574;28;20045;-83
2022/12/24 11:15:13;;;;;;;0.60;0.60;;;11.10;99.90;;;;;;4967750;28;20405;-83
2022/12/24 11:17:39;;;;;;;;;;;11.10;99.90;;;;;;4951029;28;20124;-82
2022/12/24 11:20:15;;;;;;;0.50;0.50;;;11.10;99.90;;;;;;4945355;28;19938;-82
2022/12/24 11:22:46;;;;;;;0.60;0.60;;;11.10;99.90;;;;;;4944978;28;20041;-81
2022/12/24 11:25:30;;;;;;;0.50;0.50;;;11.00;99.90;;;;;;4939165;28;20056;-84
2022/12/24 11:28:11;;;;;;;0.50;0.50;;;11.10;99.90;;;;;;4950176;28;20590;-83
2022/12/24 11:30:37;;;;;;;0.50;0.50;;;11.10;99.90;;;;;;4942539;28;20050;-83
2022/12/24 11:33:03;;;;;;;0.50;0.50;;;11.10;99.90;;;;;;4943458;28;20144;-82
2022/12/24 11:35:32;;;;;;;0.50;0.50;;;11.30;99.90;;;;;;4943826;28;20059;-82
2022/12/24 11:38:01;;;;;;;0.50;0.50;;;11.20;99.90;;;;;;4944776;28;20053;-82
2022/12/24 11:40:44;;;;;;;0.50;0.50;;;11.30;99.90;;;;;;4943999;28;20048;-81
2022/12/24 11:43:19;;;;;;;0.50;0.50;;;11.30;99.90;;;;;;4947733;28;20041;-82
2022/12/24 11:45:54;;;;;;;0.50;0.50;;;11.30;99.90;;;;;;4946455;28;20114;-82
2022/12/24 11:48:38;;;;;;;0.50;0.50;;;11.30;99.90;;;;;;4960202;28;20453;-83
2022/12/24 11:51:17;;;;;;;0.60;0.60;;;11.30;99.90;;;;;;4954646;28;20072;-81
2022/12/24 11:53:52;;;;;;;0.50;0.50;;;11.30;99.90;;;;;;4947324;28;20157;-82
2022/12/24 11:56:32;;;;;;;0.60;0.60;;;11.40;99.90;;;;;;4948117;28;20048;-82
2022/12/24 11:59:08;;;;;;;0.60;0.60;;;11.40;99.90;;;;;;4978500;28;20077;-82
2022/12/24 12:01:44;;;;;;;0.50;0.50;;;11.40;99.90;;;;;;4947578;28;20051;-82
2022/12/24 12:04:32;;;;;;;0.50;0.50;;;11.30;99.90;;;;;;4953538;28;20655;-81
2022/12/24 12:07:14;;;;;;;0.50;0.50;;;11.40;99.90;;;;;;4948567;28;20048;-82
2022/12/24 12:09:48;;;;;;;0.50;0.50;;;11.40;99.90;;;;;;4944884;28;20460;-82
2022/12/24 12:12:27;;;;;;;0.50;0.50;;;11.40;99.90;;;;;;4947497;28;20152;-81
2022/12/24 12:15:11;;;;;;;0.50;0.50;;;11.40;99.90;;;;;;4944584;28;20045;-81
2022/12/24 12:17:49;;;;;;;0.60;0.60;;;11.40;99.90;;;;;;4943637;28;20051;-82
2022/12/24 12:20:33;;;;;;;0.55;0.55;;;11.50;99.90;;;;;;4947972;28;20053;-81
2022/12/24 12:23:17;;;;;;;;;;;11.40;99.90;;;;;;4946924;28;21014;-82
2022/12/24 12:26:00;;;;;;;0.60;0.60;;;11.50;99.90;;;;;;4950442;28;21428;-84
2022/12/24 12:28:48;;;;;;;0.50;0.50;;;11.50;99.90;;;;;;4948748;28;20053;-83
2022/12/24 12:31:48;;;;;;;0.60;0.60;;;11.50;99.90;;;;;;4944979;28;20069;-83
2022/12/24 12:34:21;;;;;;;0.50;0.50;;;11.50;99.90;;;;;;4945747;28;20049;-81
2022/12/24 12:36:56;;;;;;;0.50;0.50;;;11.60;99.90;;;;;;4943830;28;20410;-82
2022/12/24 12:39:23;;;;;;;0.50;0.50;;;11.60;99.90;;;;;;4945387;28;20056;-83
2022/12/24 12:41:58;;;;;;;0.50;0.50;;;11.70;99.90;;;;;;4944444;28;20064;-83
2022/12/24 12:44:48;;;;;;;0.50;0.50;;;11.70;99.90;;;;;;4950758;28;20821;-83
2022/12/24 12:47:43;;;;;;;0.50;0.50;;;11.70;99.90;;;;;;4950551;28;20477;-82
2022/12/24 12:50:28;;;;;;;0.50;0.50;;;11.80;99.90;;;;;;4946924;28;20075;-83
2022/12/24 12:53:06;;;;;;;0.50;0.50;;;12.00;99.90;;;;;;4954169;28;20045;-83
2022/12/24 12:55:55;;;;;;;0.50;0.50;;;11.90;99.90;;;;;;4936378;28;20037;-81
2022/12/24 12:58:45;;;;;;;0.50;0.50;;;11.90;99.90;;;;;;4945395;28;20083;-82
2022/12/24 13:01:23;;;;;;;0.50;0.50;;;12.00;99.90;;;;;;4941598;28;20138;-82
2022/12/24 13:03:58;;;;;;;0.50;0.50;;;11.90;99.90;;;;;;4937142;28;20049;-82
2022/12/24 13:07:01;;;;;;;0.50;0.50;;;11.80;99.90;;;;;;4940184;28;20060;-81
2022/12/24 13:09:57;;;;;;;0.50;0.50;;;11.80;99.90;;;;;;4956535;28;20415;-80
2022/12/24 13:12:39;;;;;;;0.50;0.50;;;11.80;99.90;;;;;;4943590;28;20856;-80
2022/12/24 13:15:13;;;;;;;0.50;0.50;;;12.00;99.90;;;;;;4945603;28;20128;-82
2022/12/24 13:18:01;;;;;;;0.50;0.50;;;12.10;99.90;;;;;;4943207;28;20052;-80